sensor_id;sensor_type;location;lat;lon;timestamp;temperature;humidity
43607;DHT22;29197;44.788;10.366;2023-04-29T03:34:43;17.80;99.90
43607;DHT22;29197;44.788;10.366;2023-04-29T03:37:31;17.60;99.90
43607;DHT22;29197;44.788;10.366;2023-04-29T03:40:21;17.40;99.90
43607;DHT22;29197;44.788;10.366;2023-04-29T03:43:10;17.50;99.90
43607;DHT22;29197;44.788;10.366;2023-04-29T03:46:00;17.60;99.90
43607;DHT22;29197;44.788;10.366;2023-04-29T03:48:48;17.60;99.90
43607;DHT22;29197;44.788;10.366;2023-04-29T03:51:38;17.60;99.90
43607;DHT22;29197;44.788;10.366;2023-04-29T03:54:26;17.40;99.90
43607;DHT22;29197;44.788;10.366;2023-04-29T03:57:16;17.30;99.90
43607;DHT22;29197;44.788;10.366;2023-04-29T04:00:06;17.00;99.90
43607;DHT22;29197;44.788;10.366;2023-04-29T04:02:55;17.10;99.90
43607;DHT22;29197;44.788;10.366;2023-04-29T04:05:43;17.00;99.90
43607;DHT22;29197;44.788;10.366;2023-04-29T04:08:32;17.20;99.90
43607;DHT22;29197;44.788;10.366;2023-04-29T04:11:20;17.40;99.90
43607;DHT22;29197;44.788;10.366;2023-04-29T04:14:10;17.50;99.90
43607;DHT22;29197;44.788;10.366;2023-04-29T04:16:59;17.60;99.90
43607;DHT22;29197;44.788;10.366;2023-04-29T04:19:48;17.30;99.90
43607;DHT22;29197;44.788;10.366;2023-04-29T04:22:37;17.00;99.90
43607;DHT22;29197;44.788;10.366;2023-04-29T04:25:25;17.00;99.90
43607;DHT22;29197;44.788;10.366;2023-04-29T04:28:14;17.20;99.90
43607;DHT22;29197;44.788;10.366;2023-04-29T04:31:04;17.20;99.90
43607;DHT22;29197;44.788;10.366;2023-04-29T09:02:19;19.60;99.90
43607;DHT22;29197;44.788;10.366;2023-04-29T09:05:09;19.70;99.90
43607;DHT22;29197;44.788;10.366;2023-04-29T09:07:58;19.70;99.90
43607;DHT22;29197;44.788;10.366;2023-04-29T09:10:50;19.70;99.90
43607;DHT22;29197;44.788;10.366;2023-04-29T09:13:38;19.70;99.90
43607;DHT22;29197;44.788;10.366;2023-04-29T09:16:27;19.70;99.90
43607;DHT22;29197;44.788;10.366;2023-04-29T09:19:30;19.70;99.90
43607;DHT22;29197;44.788;10.366;2023-04-29T09:22:19;19.70;99.90
43607;DHT22;29197;44.788;10.366;2023-04-29T09:25:11;19.60;99.90
43607;DHT22;29197;44.788;10.366;2023-04-29T09:28:14;18.90;99.90
43607;DHT22;29197;44.788;10.366;2023-04-29T09:31:02;19.60;99.90
43607;DHT22;29197;44.788;10.366;2023-04-29T09:33:54;19.60;99.90
43607;DHT22;29197;44.788;10.366;2023-04-29T09:36:46;19.60;99.90
43607;DHT22;29197;44.788;10.366;2023-04-29T09:39:38;19.60;99.90
43607;DHT22;29197;44.788;10.366;2023-04-29T09:42:27;19.50;99.90
43607;DHT22;29197;44.788;10.366;2023-04-29T09:45:31;19.50;99.90
43607;DHT22;29197;44.788;10.366;2023-04-29T09:48:20;19.50;99.90
43607;DHT22;29197;44.788;10.366;2023-04-29T09:51:08;19.40;99.90
43607;DHT22;29197;44.788;10.366;2023-04-29T09:53:59;19.50;99.90
43607;DHT22;29197;44.788;10.366;2023-04-29T09:56:50;19.50;99.90
43607;DHT22;29197;44.788;10.366;2023-04-29T09:59:40;19.50;99.90
43607;DHT22;29197;44.788;10.366;2023-04-29T10:02:29;19.60;99.90
43607;DHT22;29197;44.788;10.366;2023-04-29T10:05:18;19.60;99.90
43607;DHT22;29197;44.788;10.366;2023-04-29T10:08:07;19.60;99.90
43607;DHT22;29197;44.788;10.366;2023-04-29T10:11:00;19.60;99.90
43607;DHT22;29197;44.788;10.366;2023-04-29T10:13:50;19.60;99.90
43607;DHT22;29197;44.788;10.366;2023-04-29T10:16:44;19.60;99.90
43607;DHT22;29197;44.788;10.366;2023-04-29T10:19:37;19.70;99.90
43607;DHT22;29197;44.788;10.366;2023-04-29T10:22:32;19.80;99.90
43607;DHT22;29197;44.788;10.366;2023-04-29T10:25:23;20.00;99.90
43607;DHT22;29197;44.788;10.366;2023-04-29T10:28:15;20.10;99.90
43607;DHT22;29197;44.788;10.366;2023-04-29T10:31:05;20.20;99.90
43607;DHT22;29197;44.788;10.366;2023-04-29T10:33:56;20.30;99.90
43607;DHT22;29197;44.788;10.366;2023-04-29T10:36:45;20.50;99.90
43607;DHT22;29197;44.788;10.366;2023-04-29T10:39:38;20.60;99.90
43607;DHT22;29197;44.788;10.366;2023-04-29T10:42:35;20.70;99.90
43607;DHT22;29197;44.788;10.366;2023-04-29T10:48:17;20.80;99.90
43607;DHT22;29197;44.788;10.366;2023-04-29T10:51:10;20.90;99.90
43607;DHT22;29197;44.788;10.366;2023-04-29T10:54:05;21.00;99.90
43607;DHT22;29197;44.788;10.366;2023-04-29T10:56:54;21.00;99.90
43607;DHT22;29197;44.788;10.366;2023-04-29T10:59:45;21.00;99.90
43607;DHT22;29197;44.788;10.366;2023-04-29T11:02:36;21.00;99.90
43607;DHT22;29197;44.788;10.366;2023-04-29T11:05:29;21.00;99.90
43607;DHT22;29197;44.788;10.366;2023-04-29T11:08:19;21.10;99.90
43607;DHT22;29197;44.788;10.366;2023-04-29T11:11:12;21.20;99.90
43607;DHT22;29197;44.788;10.366;2023-04-29T11:14:01;21.20;99.90
43607;DHT22;29197;44.788;10.366;2023-04-29T11:16:52;21.40;99.90
43607;DHT22;29197;44.788;10.366;2023-04-29T11:19:43;21.60;99.90
43607;DHT22;29197;44.788;10.366;2023-04-29T11:22:32;21.80;99.90
43607;DHT22;29197;44.788;10.366;2023-04-29T11:25:24;21.90;99.90
43607;DHT22;29197;44.788;10.366;2023-04-29T11:28:14;21.90;99.90
43607;DHT22;29197;44.788;10.366;2023-04-29T11:31:03;21.70;99.90
43607;DHT22;29197;44.788;10.366;2023-04-29T11:33:52;21.60;99.90
43607;DHT22;29197;44.788;10.366;2023-04-29T11:36:42;21.60;99.90
43607;DHT22;29197;44.788;10.366;2023-04-29T11:39:33;21.40;99.90
43607;DHT22;29197;44.788;10.366;2023-04-29T11:42:22;21.30;99.90
43607;DHT22;29197;44.788;10.366;2023-04-29T11:45:11;21.20;99.90
43607;DHT22;29197;44.788;10.366;2023-04-29T11:48:01;21.30;99.90
43607;DHT22;29197;44.788;10.366;2023-04-29T11:50:51;21.30;99.90
43607;DHT22;29197;44.788;10.366;2023-04-29T11:53:42;21.40;99.90
43607;DHT22;29197;44.788;10.366;2023-04-29T11:56:30;21.50;99.90
43607;DHT22;29197;44.788;10.366;2023-04-29T11:59:19;21.60;99.90
43607;DHT22;29197;44.788;10.366;2023-04-29T12:02:11;21.60;99.90
43607;DHT22;29197;44.788;10.366;2023-04-29T12:05:05;21.60;99.90
43607;DHT22;29197;44.788;10.366;2023-04-29T12:07:55;21.50;99.90
43607;DHT22;29197;44.788;10.366;2023-04-29T12:10:46;21.50;99.90
43607;DHT22;29197;44.788;10.366;2023-04-29T12:13:35;21.50;99.90
43607;DHT22;29197;44.788;10.366;2023-04-29T12:16:23;21.50;99.90
43607;DHT22;29197;44.788;10.366;2023-04-29T12:19:15;21.50;99.90
43607;DHT22;29197;44.788;10.366;2023-04-29T12:22:04;21.60;99.90
43607;DHT22;29197;44.788;10.366;2023-04-29T12:24:56;21.70;99.90
43607;DHT22;29197;44.788;10.366;2023-04-29T12:27:48;22.00;99.90
43607;DHT22;29197;44.788;10.366;2023-04-29T12:33:26;22.90;99.90
43607;DHT22;29197;44.788;10.366;2023-04-29T12:41:58;23.90;99.90
43607;DHT22;29197;44.788;10.366;2023-04-29T12:47:38;24.80;99.90
43607;DHT22;29197;44.788;10.366;2023-04-29T12:50:29;24.80;99.90
43607;DHT22;29197;44.788;10.366;2023-04-29T12:53:19;24.90;99.90
43607;DHT22;29197;44.788;10.366;2023-04-29T12:56:07;24.90;99.90
43607;DHT22;29197;44.788;10.366;2023-04-29T12:59:03;25.00;99.90
43607;DHT22;29197;44.788;10.366;2023-04-29T13:01:53;24.90;99.90
43607;DHT22;29197;44.788;10.366;2023-04-29T13:04:41;24.90;99.90
43607;DHT22;29197;44.788;10.366;2023-04-29T13:07:31;24.90;99.90
43607;DHT22;29197;44.788;10.366;2023-04-29T13:10:19;24.90;99.90
43607;DHT22;29197;44.788;10.366;2023-04-29T13:15:57;25.10;99.90
43607;DHT22;29197;44.788;10.366;2023-04-29T13:18:47;25.30;99.90
43607;DHT22;29197;44.788;10.366;2023-04-29T13:21:55;24.90;99.90
43607;DHT22;29197;44.788;10.366;2023-04-29T13:24:44;24.80;99.90
43607;DHT22;29197;44.788;10.366;2023-04-29T13:44:32;23.10;99.90
43607;DHT22;29197;44.788;10.366;2023-04-29T13:47:38;23.00;99.90
43607;DHT22;29197;44.788;10.366;2023-04-29T13:53:57;22.60;99.90
43607;DHT22;29197;44.788;10.366;2023-04-29T14:25:16;22.00;99.90
43607;DHT22;29197;44.788;10.366;2023-04-29T14:30:54;21.80;99.90
43607;DHT22;29197;44.788;10.366;2023-04-29T14:36:34;21.70;99.90
43607;DHT22;29197;44.788;10.366;2023-04-29T14:39:23;21.60;99.90
43607;DHT22;29197;44.788;10.366;2023-04-29T15:01:58;21.80;99.90
43607;DHT22;29197;44.788;10.366;2023-04-29T18:33:59;21.00;99.90
43607;DHT22;29197;44.788;10.366;2023-04-29T18:36:48;21.00;99.90
43607;DHT22;29197;44.788;10.366;2023-04-29T18:39:36;21.00;99.90
43607;DHT22;29197;44.788;10.366;2023-04-29T18:42:26;20.90;99.90
43607;DHT22;29197;44.788;10.366;2023-04-29T18:45:15;20.90;99.90
43607;DHT22;29197;44.788;10.366;2023-04-29T18:48:04;20.90;99.90
43607;DHT22;29197;44.788;10.366;2023-04-29T18:50:54;20.80;99.90
43607;DHT22;29197;44.788;10.366;2023-04-29T18:53:45;20.80;99.90
43607;DHT22;29197;44.788;10.366;2023-04-29T18:56:34;20.80;99.90
43607;DHT22;29197;44.788;10.366;2023-04-29T18:59:27;20.80;99.90
43607;DHT22;29197;44.788;10.366;2023-04-29T19:02:16;22.10;99.90
43607;DHT22;29197;44.788;10.366;2023-04-29T19:05:05;20.80;99.90
43607;DHT22;29197;44.788;10.366;2023-04-29T19:07:57;20.70;99.90
43607;DHT22;29197;44.788;10.366;2023-04-29T19:10:45;20.70;99.90
43607;DHT22;29197;44.788;10.366;2023-04-29T19:13:34;20.70;99.90
43607;DHT22;29197;44.788;10.366;2023-04-29T19:16:24;20.70;99.90
43607;DHT22;29197;44.788;10.366;2023-04-29T19:19:12;20.60;99.90
43607;DHT22;29197;44.788;10.366;2023-04-29T19:22:01;20.60;99.90
43607;DHT22;29197;44.788;10.366;2023-04-29T19:24:51;20.60;99.90
43607;DHT22;29197;44.788;10.366;2023-04-29T19:27:39;20.60;99.90
43607;DHT22;29197;44.788;10.366;2023-04-29T19:30:31;20.60;99.90
43607;DHT22;29197;44.788;10.366;2023-04-29T19:33:22;20.60;99.90
43607;DHT22;29197;44.788;10.366;2023-04-29T19:36:10;20.60;99.90
43607;DHT22;29197;44.788;10.366;2023-04-29T19:39:00;20.60;99.90
43607;DHT22;29197;44.788;10.366;2023-04-29T19:41:50;20.50;99.90
43607;DHT22;29197;44.788;10.366;2023-04-29T19:44:39;20.50;99.90
43607;DHT22;29197;44.788;10.366;2023-04-29T19:47:28;20.50;99.90
43607;DHT22;29197;44.788;10.366;2023-04-29T19:50:18;20.50;99.90
43607;DHT22;29197;44.788;10.366;2023-04-29T19:53:08;20.40;99.90
43607;DHT22;29197;44.788;10.366;2023-04-29T19:55:57;20.40;99.90
43607;DHT22;29197;44.788;10.366;2023-04-29T19:58:46;20.40;99.90
43607;DHT22;29197;44.788;10.366;2023-04-29T20:01:35;20.30;99.90
43607;DHT22;29197;44.788;10.366;2023-04-29T20:07:14;20.30;99.90
43607;DHT22;29197;44.788;10.366;2023-04-29T20:10:02;20.30;99.90
43607;DHT22;29197;44.788;10.366;2023-04-29T20:12:52;20.30;99.90
43607;DHT22;29197;44.788;10.366;2023-04-29T20:15:40;20.30;99.90
43607;DHT22;29197;44.788;10.366;2023-04-29T20:18:29;20.30;99.90
43607;DHT22;29197;44.788;10.366;2023-04-29T20:21:20;20.30;99.90
43607;DHT22;29197;44.788;10.366;2023-04-29T20:24:09;20.20;99.90
43607;DHT22;29197;44.788;10.366;2023-04-29T20:26:58;20.20;99.90
43607;DHT22;29197;44.788;10.366;2023-04-29T20:29:47;20.20;99.90
43607;DHT22;29197;44.788;10.366;2023-04-29T20:32:36;20.20;99.90
43607;DHT22;29197;44.788;10.366;2023-04-29T20:35:25;20.10;99.90
43607;DHT22;29197;44.788;10.366;2023-04-29T20:38:13;20.00;99.90
43607;DHT22;29197;44.788;10.366;2023-04-29T23:41:55;19.60;99.90
43607;DHT22;29197;44.788;10.366;2023-04-29T23:44:43;19.50;99.90
43607;DHT22;29197;44.788;10.366;2023-04-29T23:47:33;19.50;99.90
43607;DHT22;29197;44.788;10.366;2023-04-29T23:50:21;19.50;99.90
43607;DHT22;29197;44.788;10.366;2023-04-29T23:53:10;19.50;99.90
43607;DHT22;29197;44.788;10.366;2023-04-29T23:55:58;19.50;99.90
43607;DHT22;29197;44.788;10.366;2023-04-29T23:58:47;19.20;99.90
